Tieton, WA (98947)

2:13 AM PDT on August 27, 2014 (GMT -0700)
Tieton, WA | Change Station
CLOSE
Current Station
Personal Weather Station
Location: Tieton, WA
Elevation: 1970 ft
Nearby Weather Stations

Elev 1970 ft 46.71 °N, 120.72 °W | Updated 2 seconds ago

Clear
Clear
69.0 °F
Feels Like 69.0 °F
N
10.6
Wind Variable Wind from WNW
Gusts 11.5 mph

Today
High -- | Low -- °F
--% Chance of Precip.
Yesterday
High -- | Low -- °F
Precip. -- in
6:16 AM 7:51 PM
Waxing Crescent, 3% visible
Pressure 29.96 in
Visibility 10.0 miles
Clouds Clear
Dew Point 56 °F
Humidity 63%
Rainfall 0.00 in
Snow Depth Not available.
UV 0 out of 12
Pollen 4.50 out of 12
Air Quality Not available.
Flu Activity Not available.
METAR KYKM 270853Z AUTO 00000KT 10SM CLR 17/13 A2998 RMK AO2 SLP144 T01720128 53002

More Conditions Fewer Conditions

Pressure 29.96 in
Visibility 10.0 miles
Clouds Clear
Dew Point 56 °F
Humidity 63%
Rainfall 0.00 in
Snow Depth Not available.
UV 0 out of 12
Pollen 4.50 out of 12
Air Quality Not available.
Flu Activity Not available.
METAR KYKM 270853Z AUTO 00000KT 10SM CLR 17/13 A2998 RMK AO2 SLP144 T01720128 53002

More Conditions Fewer Conditions

10-Day Weather Forecast

Almanac

Astronomy

Aug. 27, 2014 Rise Set
Actual Time 6:16 AM PDT 7:51 PM PDT
Civil Twilight 5:44 AM PDT 8:23 PM PDT
Nautical Twilight 5:05 AM PDT 9:01 PM PDT
Astronomical Twilight 4:23 AM PDT 9:43 PM PDT
Moon 8:27 AM PDT 8:34 PM PDT
Length of Visible Light 14h 38m
Length of Day
13h 35m
Tomorrow will be 3m 9s shorter.
Waxing Crescent, 3% of the Moon is Illuminated
Today
Waxing Crescent
Sep 2
First Quarter
Sep 8
Full
Sep 15
Last Quarter
Sep 24
New

Today's Extremes

State Highs State Lows

Community

WunderPhotos

Upload Photos

1,747,661 photos uploaded!

Nearby

Snow Depth

Station Depth Elevation
Lost Horse 0 in 5000 ft
White Pass E.S. 0 in 4500 ft
Pigtail Peak 0 in 5900 ft
Grouse Camp 0 in 5380 ft
Upper Wheeler 0 in 4400 ft

Earthquake Activity

City Distance Mag. Time & Date
No recent earthquake activity has been reported nearby.
Minimum magnitude displayed is 2.5.

Coastal Water Temperatures

Place Temperature
No Stations Reporting

Nearby Weather Stations